createdAt,value
2022-11-29T00:00:29.106Z,71.40
2022-11-29T00:02:55.763Z,71.62
2022-11-29T00:05:22.420Z,71.62
2022-11-29T00:07:49.423Z,71.90
2022-11-29T00:10:16.103Z,71.54
2022-11-29T00:12:42.628Z,71.40
2022-11-29T00:15:09.091Z,71.83
2022-11-29T00:17:36.326Z,70.93
2022-11-29T00:20:02.808Z,71.59
2022-11-29T00:22:29.378Z,70.93
2022-11-29T00:24:55.985Z,71.17
2022-11-29T00:27:22.505Z,71.07
2022-11-29T00:29:48.980Z,70.60
2022-11-29T00:32:15.385Z,70.89
2022-11-29T00:34:41.904Z,70.91
2022-11-29T00:37:08.713Z,71.02
2022-11-29T00:39:35.298Z,70.79
2022-11-29T00:42:01.719Z,70.47
2022-11-29T00:44:28.183Z,70.34
2022-11-29T00:46:54.592Z,70.76
2022-11-29T00:49:21.064Z,71.18
2022-11-29T00:51:47.599Z,71.00
2022-11-29T00:54:14.449Z,71.16
2022-11-29T00:56:41.644Z,72.17
2022-11-29T00:59:08.858Z,71.12
2022-11-29T01:01:35.314Z,71.36
2022-11-29T01:04:02.241Z,71.18
2022-11-29T01:06:28.910Z,71.33
2022-11-29T01:08:55.363Z,71.86
2022-11-29T01:11:24.216Z,71.35
2022-11-29T01:13:56.402Z,70.57
2022-11-29T01:16:23.377Z,70.86
2022-11-29T01:18:49.954Z,70.69
2022-11-29T01:21:20.511Z,70.63
2022-11-29T01:23:48.211Z,70.67
2022-11-29T01:26:17.314Z,70.83
2022-11-29T01:28:46.659Z,70.38
2022-11-29T01:31:16.275Z,70.37
2022-11-29T01:33:42.839Z,71.26
2022-11-29T01:36:10.577Z,70.61
2022-11-29T01:38:37.077Z,70.76
2022-11-29T01:41:11.155Z,70.47
2022-11-29T01:43:56.366Z,70.73
2022-11-29T01:46:23.341Z,70.78
2022-11-29T01:48:51.886Z,70.64
2022-11-29T01:51:18.555Z,70.47
2022-11-29T01:53:45.238Z,70.95
2022-11-29T01:56:14.659Z,70.78
2022-11-29T01:58:45.407Z,70.08
2022-11-29T02:01:12.553Z,70.10
2022-11-29T02:03:39.188Z,70.71
2022-11-29T02:10:06.923Z,70.28
2022-11-29T02:13:00.717Z,70.48
2022-11-29T02:15:55.136Z,70.31
2022-11-29T02:18:40.149Z,70.79
2022-11-29T02:21:29.398Z,71.11
2022-11-29T02:24:17.359Z,71.15
2022-11-29T02:27:02.415Z,71.58
2022-11-29T02:29:45.749Z,70.95
2022-11-29T02:32:54.097Z,71.11
2022-11-29T02:35:29.366Z,70.28
2022-11-29T02:38:04.701Z,70.84
2022-11-29T02:41:18.466Z,70.43
2022-11-29T02:44:15.537Z,70.05
2022-11-29T02:46:44.492Z,70.29
2022-11-29T02:49:13.535Z,71.00
2022-11-29T02:51:49.607Z,71.05
2022-11-29T02:54:24.319Z,71.90
2022-11-29T02:56:54.107Z,71.44
2022-11-29T02:59:39.271Z,71.23
2022-11-29T03:02:15.611Z,70.99
2022-11-29T03:04:50.513Z,71.25
2022-11-29T03:07:25.453Z,71.62
2022-11-29T03:10:28.960Z,71.21
2022-11-29T03:12:56.554Z,71.60
2022-11-29T03:15:45.830Z,71.94
2022-11-29T03:18:34.707Z,72.51
2022-11-29T03:21:30.647Z,72.57
2022-11-29T03:24:02.731Z,72.50
2022-11-29T03:26:39.000Z,72.90
2022-11-29T03:29:32.485Z,72.68
2022-11-29T03:32:10.762Z,73.14
2022-11-29T03:35:36.590Z,72.94
2022-11-29T03:38:16.325Z,73.40
2022-11-29T03:41:12.067Z,73.88
2022-11-29T03:43:59.694Z,73.53
2022-11-29T03:46:36.613Z,73.60
2022-11-29T03:49:09.570Z,73.71
2022-11-29T03:51:51.934Z,73.95
2022-11-29T03:54:25.856Z,73.22
2022-11-29T03:56:52.633Z,72.88
2022-11-29T03:59:31.198Z,73.15
2022-11-29T04:02:28.492Z,72.92
2022-11-29T04:05:10.189Z,73.39
2022-11-29T04:08:00.383Z,73.31
2022-11-29T04:10:48.249Z,73.03
2022-11-29T04:13:43.081Z,72.60
2022-11-29T04:16:48.314Z,72.63
2022-11-29T04:19:26.919Z,72.85
2022-11-29T04:22:04.533Z,73.13
2022-11-29T04:25:26.387Z,72.66
2022-11-29T04:28:11.262Z,73.00
2022-11-29T04:30:57.323Z,72.76
2022-11-29T04:33:54.755Z,72.46
2022-11-29T04:36:42.994Z,71.74
2022-11-29T04:39:21.676Z,72.43
2022-11-29T04:42:05.837Z,71.86
2022-11-29T04:44:57.897Z,72.82
2022-11-29T04:47:53.624Z,72.25
2022-11-29T04:51:03.800Z,72.41
2022-11-29T04:53:35.789Z,72.05
2022-11-29T04:56:27.941Z,72.08
2022-11-29T04:59:15.538Z,72.31
2022-11-29T05:02:14.185Z,72.25
2022-11-29T05:05:06.128Z,71.87
2022-11-29T05:07:57.678Z,72.20
2022-11-29T05:10:48.338Z,72.02
2022-11-29T05:13:34.089Z,72.17
2022-11-29T05:16:12.311Z,71.81
2022-11-29T05:19:11.499Z,72.06
2022-11-29T05:22:01.934Z,71.75
2022-11-29T05:24:41.269Z,72.00
2022-11-29T05:27:29.696Z,71.82
2022-11-29T05:30:14.276Z,71.68
2022-11-29T05:32:57.642Z,70.92
2022-11-29T05:35:40.646Z,70.44
2022-11-29T05:38:10.024Z,71.15
2022-11-29T05:40:45.306Z,71.30
2022-11-29T05:43:59.793Z,71.62
2022-11-29T05:46:56.733Z,70.95
2022-11-29T05:49:39.262Z,71.46
2022-11-29T05:52:31.743Z,71.40
2022-11-29T05:55:17.089Z,71.79
2022-11-29T05:57:46.454Z,71.10
2022-11-29T06:00:14.693Z,71.43
2022-11-29T06:03:05.946Z,71.21
2022-11-29T06:05:55.133Z,71.30
2022-11-29T06:08:34.249Z,71.37
2022-11-29T06:11:24.102Z,72.02
2022-11-29T06:14:03.253Z,71.91
2022-11-29T06:16:47.943Z,71.89
2022-11-29T06:19:37.474Z,71.94
2022-11-29T06:22:22.870Z,72.00
2022-11-29T06:24:52.300Z,72.06
2022-11-29T06:27:57.472Z,71.98
2022-11-29T06:30:30.190Z,71.45
2022-11-29T06:33:13.313Z,71.89
2022-11-29T06:35:39.998Z,72.27
2022-11-29T06:38:28.409Z,71.37
2022-11-29T06:41:01.767Z,71.67
2022-11-29T06:43:29.794Z,71.52
2022-11-29T06:46:03.652Z,71.43
2022-11-29T06:48:38.425Z,72.44
2022-11-29T06:51:21.504Z,72.13
2022-11-29T06:54:04.394Z,71.74
2022-11-29T06:57:00.601Z,71.78
2022-11-29T06:59:42.447Z,71.53
2022-11-29T07:02:31.985Z,71.90
2022-11-29T07:05:25.609Z,71.85
2022-11-29T07:07:56.415Z,72.04
2022-11-29T07:10:24.561Z,71.70
2022-11-29T07:12:51.710Z,72.01
2022-11-29T07:15:22.177Z,72.05
2022-11-29T07:18:07.192Z,71.12
2022-11-29T07:20:55.694Z,70.98
2022-11-29T07:23:34.539Z,70.49
2022-11-29T07:26:00.924Z,71.30
2022-11-29T07:28:43.270Z,70.54
2022-11-29T07:31:45.051Z,71.43
2022-11-29T07:34:17.610Z,70.34
2022-11-29T07:37:01.512Z,70.71
2022-11-29T07:39:36.982Z,70.74
2022-11-29T07:42:06.281Z,71.34
2022-11-29T07:44:50.100Z,70.83
2022-11-29T07:47:18.044Z,71.17
2022-11-29T07:49:44.587Z,71.25
2022-11-29T07:52:16.183Z,70.96
2022-11-29T07:54:43.090Z,70.39
2022-11-29T07:57:09.753Z,71.11
2022-11-29T07:59:36.298Z,71.13
2022-11-29T08:02:06.522Z,70.51
2022-11-29T08:04:46.653Z,70.38
2022-11-29T08:07:13.415Z,71.16
2022-11-29T08:09:39.848Z,70.40
2022-11-29T08:12:06.395Z,70.68
2022-11-29T08:14:33.394Z,70.77
2022-11-29T08:16:59.863Z,71.07
2022-11-29T08:19:26.336Z,70.65
2022-11-29T08:21:53.074Z,71.16
2022-11-29T08:24:19.590Z,70.86
2022-11-29T08:26:46.261Z,70.87
2022-11-29T08:29:12.799Z,71.09
2022-11-29T08:31:39.345Z,71.88
2022-11-29T08:34:06.491Z,71.90
2022-11-29T08:36:33.271Z,71.50
2022-11-29T08:39:08.891Z,71.89
2022-11-29T08:41:36.192Z,72.06
2022-11-29T08:44:04.145Z,71.66
2022-11-29T08:46:50.546Z,71.98
2022-11-29T08:49:17.123Z,71.70
2022-11-29T08:51:43.673Z,71.94
2022-11-29T08:54:10.217Z,71.13
2022-11-29T08:59:24.037Z,71.65
2022-11-29T09:01:50.632Z,71.12
2022-11-29T09:04:17.598Z,71.26
2022-11-29T09:06:44.427Z,71.31
2022-11-29T09:09:10.990Z,71.14
2022-11-29T09:11:37.443Z,71.31
2022-11-29T09:14:06.578Z,71.42
2022-11-29T09:16:37.515Z,71.21
2022-11-29T09:19:05.451Z,70.30
2022-11-29T09:21:33.089Z,70.88
2022-11-29T09:24:01.823Z,70.56
2022-11-29T09:26:31.552Z,70.75
2022-11-29T09:29:02.625Z,71.10
2022-11-29T09:31:30.844Z,71.12
2022-11-29T09:33:57.549Z,70.92
2022-11-29T09:36:28.394Z,70.52
2022-11-29T09:38:55.295Z,71.03
2022-11-29T09:41:58.763Z,70.61
2022-11-29T09:44:46.805Z,69.78
2022-11-29T09:47:33.092Z,70.14
2022-11-29T09:50:17.019Z,69.36
2022-11-29T09:53:00.048Z,69.08
2022-11-29T09:55:56.947Z,69.05
2022-11-29T09:58:29.213Z,69.13
2022-11-29T10:01:05.316Z,68.31
2022-11-29T10:03:39.200Z,68.54
2022-11-29T10:06:32.066Z,68.14
2022-11-29T10:09:15.076Z,68.88
2022-11-29T10:12:07.432Z,68.40
2022-11-29T10:14:44.534Z,68.08
2022-11-29T10:17:41.177Z,67.95
2022-11-29T10:20:39.197Z,68.49
2022-11-29T10:23:46.538Z,68.92
2022-11-29T10:26:16.477Z,69.32
2022-11-29T10:28:55.583Z,68.21
2022-11-29T10:31:30.932Z,68.54
2022-11-29T10:34:13.920Z,69.09
2022-11-29T10:36:51.160Z,68.29
2022-11-29T10:39:34.264Z,68.80
2022-11-29T10:42:03.687Z,67.54
2022-11-29T10:44:32.859Z,68.59
2022-11-29T10:47:09.244Z,68.42
2022-11-29T10:49:37.965Z,68.02
2022-11-29T10:52:19.474Z,68.41
2022-11-29T10:54:48.482Z,68.25
2022-11-29T10:57:22.031Z,68.88
2022-11-29T11:00:00.542Z,68.92
2022-11-29T11:02:28.282Z,69.04
2022-11-29T11:04:55.021Z,69.45
2022-11-29T11:07:26.141Z,69.24
2022-11-29T11:09:57.174Z,69.28
2022-11-29T11:12:30.064Z,69.09
2022-11-29T11:15:35.629Z,69.22
2022-11-29T11:18:06.374Z,68.46
2022-11-29T11:20:39.623Z,68.28
2022-11-29T11:23:20.828Z,68.22
2022-11-29T11:25:50.314Z,68.36
2022-11-29T11:28:26.196Z,68.63
2022-11-29T11:31:00.133Z,69.30
2022-11-29T11:33:27.095Z,69.40
2022-11-29T11:36:06.699Z,68.80
2022-11-29T11:38:35.461Z,69.07
2022-11-29T11:41:59.289Z,69.36
2022-11-29T11:44:47.708Z,68.58
2022-11-29T11:47:20.819Z,69.10
2022-11-29T11:50:03.817Z,68.85
2022-11-29T11:52:40.046Z,68.49
2022-11-29T11:55:29.363Z,68.34
2022-11-29T11:58:10.420Z,68.32
2022-11-29T12:01:07.868Z,68.25
2022-11-29T12:03:48.203Z,67.97
2022-11-29T12:06:50.613Z,68.13
2022-11-29T12:09:32.538Z,69.40
2022-11-29T12:12:17.445Z,69.18
2022-11-29T12:15:05.349Z,69.15
2022-11-29T12:17:34.631Z,68.34
2022-11-29T12:20:21.158Z,69.34
2022-11-29T12:22:53.903Z,68.33
2022-11-29T12:25:32.870Z,68.56
2022-11-29T12:27:59.773Z,68.99
2022-11-29T12:30:26.406Z,68.70
2022-11-29T12:33:07.990Z,68.18
2022-11-29T12:35:46.348Z,68.19
2022-11-29T12:38:22.198Z,68.24
2022-11-29T12:41:29.421Z,67.45
2022-11-29T12:44:12.403Z,67.36
2022-11-29T12:46:40.766Z,67.67
2022-11-29T12:49:32.151Z,68.64
2022-11-29T12:52:26.711Z,68.52
2022-11-29T12:55:20.503Z,68.69
2022-11-29T12:58:13.671Z,68.93
2022-11-29T13:01:06.753Z,69.04
2022-11-29T13:03:52.247Z,68.62
2022-11-29T13:06:49.925Z,69.29
2022-11-29T13:09:40.198Z,68.72
2022-11-29T13:12:33.545Z,68.48
2022-11-29T13:15:06.877Z,67.86
2022-11-29T13:17:51.300Z,69.30
2022-11-29T13:20:27.934Z,68.96
2022-11-29T13:23:39.110Z,68.73
2022-11-29T13:26:13.458Z,67.96
2022-11-29T13:28:42.320Z,68.61
2022-11-29T13:31:19.655Z,69.03
2022-11-29T13:34:07.894Z,68.74
2022-11-29T13:36:49.550Z,69.27
2022-11-29T13:39:34.995Z,69.45
2022-11-29T13:42:04.416Z,68.51
2022-11-29T13:44:43.638Z,69.58
2022-11-29T13:47:13.214Z,69.65
2022-11-29T13:49:50.881Z,69.14
2022-11-29T13:52:28.367Z,69.13
2022-11-29T13:55:14.255Z,69.42
2022-11-29T14:00:50.899Z,69.77
2022-11-29T14:03:23.913Z,69.46
2022-11-29T14:06:03.498Z,69.59
2022-11-29T14:08:55.066Z,70.08
2022-11-29T14:11:28.838Z,70.08
2022-11-29T14:14:14.117Z,70.48
2022-11-29T14:16:43.769Z,70.41
2022-11-29T14:19:10.370Z,70.50
2022-11-29T14:22:08.078Z,70.60
2022-11-29T14:24:38.062Z,70.39
2022-11-29T14:27:10.333Z,71.45
2022-11-29T14:29:53.815Z,71.19
2022-11-29T14:32:46.435Z,70.61
2022-11-29T14:35:13.378Z,70.62
2022-11-29T14:38:31.165Z,71.32
2022-11-29T14:41:09.430Z,71.71
2022-11-29T14:44:04.921Z,71.62
2022-11-29T14:46:40.249Z,71.48
2022-11-29T14:49:32.462Z,71.90
2022-11-29T14:52:51.659Z,71.43
2022-11-29T14:58:38.603Z,71.44
2022-11-29T15:01:10.703Z,71.27
2022-11-29T15:03:48.966Z,71.48
2022-11-29T15:06:26.606Z,71.05
2022-11-29T15:09:25.408Z,71.12
2022-11-29T15:12:04.163Z,70.98
2022-11-29T15:15:04.735Z,71.50
2022-11-29T15:17:52.135Z,71.12
2022-11-29T15:20:55.555Z,71.97
2022-11-29T15:23:28.333Z,71.97
2022-11-29T15:26:11.303Z,72.03
2022-11-29T15:28:37.820Z,72.27
2022-11-29T15:31:11.252Z,71.91
2022-11-29T15:33:41.661Z,72.18
2022-11-29T15:36:15.263Z,72.12
2022-11-29T15:38:59.806Z,73.18
2022-11-29T15:41:32.264Z,72.91
2022-11-29T15:44:06.025Z,73.49
2022-11-29T15:46:36.615Z,73.84
2022-11-29T15:49:35.761Z,73.68
2022-11-29T15:52:11.250Z,73.92
2022-11-29T15:54:44.699Z,73.60
2022-11-29T15:57:23.364Z,73.93
2022-11-29T15:59:53.931Z,74.12
2022-11-29T16:02:41.860Z,74.84
2022-11-29T16:05:35.353Z,75.26
2022-11-29T16:08:26.727Z,75.32
2022-11-29T16:10:54.422Z,75.51
2022-11-29T16:13:40.924Z,76.23
2022-11-29T16:16:22.865Z,76.13
2022-11-29T16:18:51.185Z,76.75
2022-11-29T16:21:27.321Z,77.09
2022-11-29T16:23:54.251Z,77.07
2022-11-29T16:26:30.268Z,76.59
2022-11-29T16:29:01.640Z,76.83
2022-11-29T16:31:40.933Z,76.92
2022-11-29T16:34:10.394Z,76.61
2022-11-29T16:36:37.702Z,76.30
2022-11-29T16:39:19.290Z,76.23
2022-11-29T16:42:05.493Z,76.90
2022-11-29T16:44:48.207Z,77.17
2022-11-29T16:47:20.854Z,77.27
2022-11-29T16:50:20.337Z,76.67
2022-11-29T16:52:49.828Z,76.44
2022-11-29T16:55:20.137Z,77.26
2022-11-29T16:57:47.395Z,76.99
2022-11-29T17:00:32.735Z,76.93
2022-11-29T17:02:59.923Z,77.03
2022-11-29T17:05:27.190Z,77.34
2022-11-29T17:07:53.828Z,77.31
2022-11-29T17:10:24.157Z,77.47
2022-11-29T17:12:50.686Z,77.50
2022-11-29T17:15:17.802Z,77.61
2022-11-29T17:17:44.543Z,76.92
2022-11-29T17:20:13.073Z,77.11
2022-11-29T17:22:45.696Z,76.89
2022-11-29T17:25:12.579Z,77.19
2022-11-29T17:27:39.031Z,77.10
2022-11-29T17:30:07.059Z,77.36
2022-11-29T17:32:35.968Z,76.53
2022-11-29T17:35:02.524Z,76.76
2022-11-29T17:37:30.482Z,76.82
2022-11-29T17:39:57.451Z,76.71
2022-11-29T17:42:24.144Z,76.53
2022-11-29T17:44:51.001Z,75.65
2022-11-29T17:47:17.633Z,76.55
2022-11-29T17:49:47.969Z,75.79
2022-11-29T17:52:14.949Z,76.21
2022-11-29T17:54:41.908Z,75.26
2022-11-29T17:57:09.501Z,75.24
2022-11-29T17:59:39.073Z,74.64
2022-11-29T18:02:10.403Z,74.28
2022-11-29T18:04:37.477Z,74.43
2022-11-29T18:07:20.011Z,74.30
2022-11-29T18:09:50.841Z,73.72
2022-11-29T18:12:18.128Z,74.01
2022-11-29T18:14:44.664Z,73.34
2022-11-29T18:17:11.325Z,73.70
2022-11-29T18:19:38.081Z,73.43
2022-11-29T18:22:10.694Z,73.99
2022-11-29T18:24:37.268Z,73.26
2022-11-29T18:27:04.012Z,73.04
2022-11-29T18:29:34.259Z,73.06
2022-11-29T18:32:04.881Z,73.20
2022-11-29T18:34:31.321Z,72.78
2022-11-29T18:36:57.816Z,73.16
2022-11-29T18:39:24.970Z,72.53
2022-11-29T18:41:51.481Z,72.37
2022-11-29T18:44:19.926Z,72.71
2022-11-29T18:46:46.483Z,72.19
2022-11-29T18:49:15.126Z,72.46
2022-11-29T18:51:44.460Z,71.43
2022-11-29T18:54:11.807Z,71.53
2022-11-29T18:56:38.703Z,72.34
2022-11-29T18:59:08.500Z,71.43
2022-11-29T19:01:37.883Z,72.00
2022-11-29T19:04:04.584Z,71.64
2022-11-29T19:06:39.271Z,71.47
2022-11-29T19:09:07.799Z,71.34
2022-11-29T19:11:34.468Z,71.14
2022-11-29T19:14:03.906Z,71.41
2022-11-29T19:16:33.078Z,70.69
2022-11-29T19:19:00.702Z,70.73
2022-11-29T19:21:28.978Z,70.96
2022-11-29T19:23:57.851Z,70.84
2022-11-29T19:26:26.630Z,70.79
2022-11-29T19:28:54.222Z,70.40
2022-11-29T19:31:26.971Z,70.37
2022-11-29T19:33:55.111Z,70.61
2022-11-29T19:36:27.768Z,71.40
2022-11-29T19:38:54.778Z,70.79
2022-11-29T19:41:24.535Z,71.33
2022-11-29T19:43:51.549Z,70.75
2022-11-29T19:46:23.933Z,70.57
2022-11-29T19:48:55.043Z,70.47
2022-11-29T19:51:22.922Z,70.65
2022-11-29T19:53:53.328Z,70.90
2022-11-29T19:56:20.592Z,71.73
2022-11-29T19:58:47.333Z,71.43
2022-11-29T20:01:18.026Z,71.47
2022-11-29T20:03:47.485Z,71.43
2022-11-29T20:06:14.207Z,71.63
2022-11-29T20:08:41.439Z,71.94
2022-11-29T20:11:20.059Z,71.34
2022-11-29T20:13:55.973Z,71.26
2022-11-29T20:16:23.404Z,71.28
2022-11-29T20:18:51.540Z,70.82
2022-11-29T20:21:21.440Z,71.01
2022-11-29T20:23:48.014Z,71.46
2022-11-29T20:26:19.293Z,71.68
2022-11-29T20:28:47.329Z,71.09
2022-11-29T20:31:16.757Z,71.72
2022-11-29T20:33:45.753Z,71.26
2022-11-29T20:36:21.532Z,70.98
2022-11-29T20:39:00.089Z,71.93
2022-11-29T20:41:59.337Z,70.99
2022-11-29T20:44:51.893Z,71.45
2022-11-29T20:47:21.051Z,71.44
2022-11-29T20:49:48.556Z,71.87
2022-11-29T20:52:41.478Z,71.59
2022-11-29T20:55:08.361Z,71.58
2022-11-29T20:57:34.878Z,71.95
2022-11-29T21:00:02.383Z,71.51
2022-11-29T21:02:28.994Z,71.39
2022-11-29T21:04:55.537Z,71.67
2022-11-29T21:07:22.058Z,71.84
2022-11-29T21:09:48.483Z,71.60
2022-11-29T21:12:15.608Z,71.75
2022-11-29T21:14:43.924Z,72.06
2022-11-29T21:17:10.986Z,71.39
2022-11-29T21:19:37.983Z,70.57
2022-11-29T21:22:41.050Z,70.74
2022-11-29T21:25:19.417Z,71.58
2022-11-29T21:27:46.082Z,71.79
2022-11-29T21:30:21.530Z,71.45
2022-11-29T21:32:48.516Z,71.27
2022-11-29T21:35:15.601Z,71.57
2022-11-29T21:37:43.141Z,72.34
2022-11-29T21:40:10.849Z,71.95
2022-11-29T21:42:37.996Z,71.67
2022-11-29T21:45:09.332Z,71.81
2022-11-29T21:47:41.436Z,72.00
2022-11-29T21:50:08.303Z,71.73
2022-11-29T21:52:34.820Z,71.05
2022-11-29T21:55:01.586Z,70.62
2022-11-29T21:57:28.032Z,71.08
2022-11-29T21:59:54.560Z,71.52
2022-11-29T22:02:21.396Z,72.17
2022-11-29T22:04:48.566Z,71.63
2022-11-29T22:07:15.329Z,71.30
2022-11-29T22:09:41.882Z,71.91
2022-11-29T22:12:31.823Z,71.52
2022-11-29T22:14:54.933Z,70.76
2022-11-29T22:17:21.414Z,71.55
2022-11-29T22:19:47.894Z,71.58
2022-11-29T22:22:14.409Z,71.51
2022-11-29T22:24:40.956Z,72.09
2022-11-29T22:27:07.480Z,71.48
2022-11-29T22:29:34.052Z,71.24
2022-11-29T22:32:01.305Z,71.10
2022-11-29T22:34:28.206Z,71.22
2022-11-29T22:36:54.978Z,71.52
2022-11-29T22:39:21.423Z,72.44
2022-11-29T22:41:53.554Z,72.40
2022-11-29T22:44:20.745Z,72.71
2022-11-29T22:46:47.320Z,72.04
2022-11-29T22:49:13.837Z,71.93
2022-11-29T22:51:40.355Z,71.88
2022-11-29T22:54:09.271Z,71.74
2022-11-29T22:56:38.899Z,70.90
2022-11-29T22:59:06.439Z,71.42
2022-11-29T23:01:35.947Z,71.13
2022-11-29T23:04:04.762Z,71.02
2022-11-29T23:06:33.853Z,71.25
2022-11-29T23:09:11.917Z,71.04
2022-11-29T23:11:39.248Z,71.14
2022-11-29T23:14:05.856Z,70.92
2022-11-29T23:16:32.975Z,70.84
2022-11-29T23:19:00.592Z,71.15
2022-11-29T23:21:29.612Z,71.31
2022-11-29T23:23:57.039Z,71.38
2022-11-29T23:26:37.474Z,71.02
2022-11-29T23:29:05.407Z,70.82
2022-11-29T23:31:32.270Z,70.79
2022-11-29T23:33:59.086Z,70.35
2022-11-29T23:36:25.776Z,70.30
2022-11-29T23:38:52.431Z,71.19
2022-11-29T23:41:18.991Z,70.66
2022-11-29T23:43:45.442Z,70.93
2022-11-29T23:46:38.267Z,70.61
2022-11-29T23:49:04.836Z,70.29
2022-11-29T23:51:31.384Z,70.91
2022-11-29T23:53:57.866Z,70.78
2022-11-29T23:56:24.285Z,71.00
2022-11-29T23:58:50.717Z,70.58
